createdAt,value
2017-09-16T00:01:35.256Z,48.70
2017-09-16T00:04:03.336Z,48.40
2017-09-16T00:06:32.187Z,48.60
2017-09-16T00:09:00.272Z,48.60
2017-09-16T00:11:28.360Z,48.70
2017-09-16T00:13:56.431Z,50.10
2017-09-16T00:16:24.502Z,50.70
2017-09-16T00:18:52.574Z,50.70
2017-09-16T00:21:20.653Z,50.00
2017-09-16T00:23:48.727Z,49.90
2017-09-16T00:26:16.812Z,49.70
2017-09-16T00:28:44.883Z,51.10
2017-09-16T00:31:12.952Z,51.40
2017-09-16T00:33:41.012Z,51.50
2017-09-16T00:36:09.090Z,52.00
2017-09-16T00:38:37.158Z,53.50
2017-09-16T00:41:05.244Z,54.00
2017-09-16T00:43:34.084Z,52.80
2017-09-16T00:46:02.166Z,52.60
2017-09-16T00:48:30.264Z,52.00
2017-09-16T00:50:58.339Z,52.20
2017-09-16T00:53:26.419Z,51.40
2017-09-16T00:55:54.478Z,51.40
2017-09-16T00:58:22.568Z,51.30
2017-09-16T01:00:50.631Z,52.60
2017-09-16T01:03:18.714Z,53.40
2017-09-16T01:05:47.556Z,56.40
2017-09-16T01:08:15.640Z,55.70
2017-09-16T01:10:43.722Z,55.60
2017-09-16T01:13:11.797Z,54.90
2017-09-16T01:15:39.872Z,54.80
2017-09-16T01:18:07.952Z,55.20
2017-09-16T01:20:36.028Z,55.00
2017-09-16T01:23:04.099Z,53.10
2017-09-16T01:25:33.197Z,52.60
2017-09-16T01:28:01.292Z,52.10
2017-09-16T01:30:30.146Z,52.20
2017-09-16T01:32:58.211Z,52.10
2017-09-16T01:35:26.292Z,51.60
2017-09-16T01:37:54.363Z,52.00
2017-09-16T01:40:22.435Z,52.50
2017-09-16T01:42:50.509Z,52.30
2017-09-16T01:45:18.588Z,52.30
2017-09-16T01:47:46.657Z,53.00
2017-09-16T01:50:14.724Z,53.10
2017-09-16T01:52:42.800Z,53.30
2017-09-16T01:55:10.868Z,53.00
2017-09-16T01:57:38.945Z,52.60
2017-09-16T02:00:07.011Z,52.60
2017-09-16T02:02:35.095Z,52.10
2017-09-16T02:05:03.168Z,52.60
2017-09-16T02:07:31.239Z,52.10
2017-09-16T02:09:59.303Z,52.10
2017-09-16T02:12:27.399Z,52.20
2017-09-16T02:14:55.464Z,52.10
2017-09-16T02:17:23.535Z,52.00
2017-09-16T02:19:51.608Z,51.50
2017-09-16T02:22:19.677Z,51.20
2017-09-16T02:24:47.753Z,51.10
2017-09-16T02:27:15.819Z,50.70
2017-09-16T02:29:43.968Z,50.30
2017-09-16T02:32:12.801Z,50.10
2017-09-16T02:34:40.872Z,50.10
2017-09-16T02:37:08.932Z,50.40
2017-09-16T02:39:37.017Z,51.70
2017-09-16T02:42:05.098Z,53.50
2017-09-16T02:44:34.157Z,54.10
2017-09-16T02:47:02.232Z,54.00
2017-09-16T02:49:30.300Z,53.20
2017-09-16T02:51:58.392Z,53.10
2017-09-16T02:54:26.459Z,54.00
2017-09-16T02:56:54.580Z,55.20
2017-09-16T02:59:22.650Z,54.90
2017-09-16T03:01:50.741Z,54.80
2017-09-16T03:04:18.824Z,55.30
2017-09-16T03:06:46.911Z,55.10
2017-09-16T03:09:14.987Z,54.90
2017-09-16T03:11:43.067Z,54.70
2017-09-16T03:14:11.148Z,55.60
2017-09-16T03:16:39.240Z,56.20
2017-09-16T03:19:08.078Z,54.50
2017-09-16T03:21:36.169Z,54.50
2017-09-16T03:24:04.237Z,53.90
2017-09-16T03:26:32.307Z,53.80
2017-09-16T03:29:00.388Z,54.40
2017-09-16T03:31:28.452Z,54.50
2017-09-16T03:33:56.531Z,54.80
2017-09-16T03:36:24.595Z,55.00
2017-09-16T03:38:52.683Z,54.60
2017-09-16T03:41:20.765Z,54.20
2017-09-16T03:43:48.828Z,54.20
2017-09-16T03:46:16.891Z,53.60
2017-09-16T03:48:44.959Z,53.80
2017-09-16T03:51:13.315Z,54.30
2017-09-16T03:53:41.399Z,55.00
2017-09-16T03:56:09.464Z,55.60
2017-09-16T03:58:38.296Z,57.00
2017-09-16T04:01:06.375Z,56.90
2017-09-16T04:03:34.439Z,57.00
2017-09-16T04:06:02.519Z,57.00
2017-09-16T04:08:30.580Z,57.10
2017-09-16T04:10:58.669Z,57.20
2017-09-16T04:13:26.735Z,57.20
2017-09-16T04:15:54.811Z,58.90
2017-09-16T04:18:23.663Z,58.20
2017-09-16T04:20:51.753Z,58.10
2017-09-16T04:23:19.822Z,57.30
2017-09-16T04:25:47.921Z,58.30
2017-09-16T04:28:15.992Z,57.80
2017-09-16T04:30:44.065Z,57.70
2017-09-16T04:33:12.143Z,57.20
2017-09-16T04:35:40.989Z,57.90
2017-09-16T04:38:09.072Z,57.80
2017-09-16T04:40:37.138Z,57.70
2017-09-16T04:43:05.233Z,57.20
2017-09-16T04:45:33.303Z,57.30
2017-09-16T04:48:01.392Z,56.90
2017-09-16T04:50:30.230Z,57.10
2017-09-16T04:52:58.308Z,57.20
2017-09-16T04:55:27.139Z,57.30
2017-09-16T04:57:55.218Z,57.20
2017-09-16T05:00:24.062Z,57.40
2017-09-16T05:02:52.139Z,57.40
2017-09-16T05:05:20.226Z,57.40
2017-09-16T05:07:48.295Z,57.40
2017-09-16T05:10:16.378Z,57.30
2017-09-16T05:12:44.435Z,57.80
2017-09-16T05:15:12.512Z,57.60
2017-09-16T05:17:40.583Z,57.20
2017-09-16T05:20:08.668Z,57.30
2017-09-16T05:22:36.744Z,57.80
2017-09-16T05:25:04.827Z,58.00
2017-09-16T05:27:32.902Z,58.70
2017-09-16T05:30:00.978Z,59.60
2017-09-16T05:32:29.819Z,59.60
2017-09-16T05:34:57.907Z,59.50
2017-09-16T05:37:25.987Z,58.70
2017-09-16T05:39:54.062Z,58.00
2017-09-16T05:42:22.143Z,58.30
2017-09-16T05:44:50.216Z,57.40
2017-09-16T05:47:18.287Z,57.40
2017-09-16T05:49:46.358Z,58.20
2017-09-16T05:52:14.431Z,57.40
2017-09-16T05:54:42.511Z,57.60
2017-09-16T05:57:10.588Z,58.60
2017-09-16T05:59:38.655Z,58.50
2017-09-16T06:02:06.727Z,58.20
2017-09-16T06:04:34.796Z,58.90
2017-09-16T06:07:02.882Z,59.40
2017-09-16T06:09:31.736Z,61.90
2017-09-16T06:12:00.575Z,63.20
2017-09-16T06:14:29.412Z,63.40
2017-09-16T06:16:57.488Z,63.40
2017-09-16T06:19:25.574Z,63.60
2017-09-16T06:21:53.644Z,64.90
2017-09-16T06:24:21.736Z,64.70
2017-09-16T06:26:50.597Z,65.90
2017-09-16T06:29:18.679Z,65.90
2017-09-16T06:31:46.747Z,66.00
2017-09-16T06:34:20.723Z,66.00
2017-09-16T06:36:48.809Z,63.50
2017-09-16T06:39:17.659Z,63.10
2017-09-16T06:41:45.716Z,63.10
2017-09-16T06:44:13.788Z,61.90
2017-09-16T06:46:41.872Z,61.90
2017-09-16T06:49:09.935Z,62.00
2017-09-16T06:51:38.016Z,61.80
2017-09-16T06:54:06.077Z,61.20
2017-09-16T06:56:34.163Z,60.30
2017-09-16T06:59:02.232Z,60.30
2017-09-16T07:01:30.312Z,59.40
2017-09-16T07:03:59.159Z,58.00
2017-09-16T07:06:27.300Z,57.90
2017-09-16T07:08:55.375Z,56.50
2017-09-16T07:11:23.463Z,55.60
2017-09-16T07:13:52.309Z,56.90
2017-09-16T07:16:20.379Z,56.90
2017-09-16T07:18:48.508Z,56.80
2017-09-16T07:21:17.341Z,56.50
2017-09-16T07:23:45.421Z,56.50
2017-09-16T07:26:13.492Z,56.30
2017-09-16T07:28:42.339Z,58.30
2017-09-16T07:31:10.455Z,58.40
2017-09-16T07:33:39.318Z,58.30
2017-09-16T07:36:07.384Z,57.70
2017-09-16T07:38:35.476Z,57.30
2017-09-16T07:41:03.549Z,56.80
2017-09-16T07:43:31.625Z,56.40
2017-09-16T07:45:59.753Z,55.80
2017-09-16T07:48:27.840Z,53.10
2017-09-16T07:50:55.927Z,52.20
2017-09-16T07:53:24.016Z,50.80
2017-09-16T07:55:52.115Z,51.10
2017-09-16T07:58:20.968Z,49.00
2017-09-16T08:00:49.054Z,48.90
2017-09-16T08:03:17.139Z,49.70
2017-09-16T08:05:46.932Z,49.90
2017-09-16T08:08:15.026Z,49.90
2017-09-16T08:10:43.872Z,49.90
2017-09-16T08:13:11.980Z,49.90
2017-09-16T08:15:40.061Z,50.00
2017-09-16T08:18:08.913Z,50.00
2017-09-16T08:20:36.998Z,50.00
2017-09-16T08:23:05.067Z,50.00
2017-09-16T08:25:33.151Z,49.40
2017-09-16T08:28:01.232Z,48.40
2017-09-16T08:30:29.309Z,48.80
2017-09-16T08:32:57.381Z,48.60
2017-09-16T08:35:25.465Z,49.20
2017-09-16T08:37:54.325Z,49.50
2017-09-16T08:40:22.416Z,49.50
2017-09-16T08:42:50.499Z,48.90
2017-09-16T08:45:19.342Z,48.40
2017-09-16T08:47:47.432Z,48.40
2017-09-16T08:50:15.508Z,48.50
2017-09-16T08:52:43.591Z,48.40
2017-09-16T08:55:11.668Z,48.90
2017-09-16T08:57:40.536Z,50.40
2017-09-16T09:00:08.613Z,50.40
2017-09-16T09:02:36.704Z,50.40
2017-09-16T09:05:04.780Z,51.70
2017-09-16T09:07:32.859Z,51.90
2017-09-16T09:10:01.709Z,51.10
2017-09-16T09:12:29.800Z,51.10
2017-09-16T09:14:57.888Z,51.30
2017-09-16T09:17:25.959Z,51.10
2017-09-16T09:19:54.049Z,50.00
2017-09-16T09:22:22.895Z,48.60
2017-09-16T09:24:50.983Z,48.60
2017-09-16T09:27:19.056Z,46.50
2017-09-16T09:29:47.140Z,45.60
2017-09-16T09:32:15.224Z,46.20
2017-09-16T09:34:44.081Z,43.50
2017-09-16T09:37:12.171Z,43.20
2017-09-16T09:39:40.246Z,42.60
2017-09-16T09:42:08.321Z,42.70
2017-09-16T09:44:36.405Z,41.60
2017-09-16T09:47:05.247Z,42.20
2017-09-16T09:49:33.336Z,42.10
2017-09-16T09:52:01.409Z,42.30
2017-09-16T09:54:29.492Z,41.90
2017-09-16T09:56:57.568Z,39.80
2017-09-16T09:59:25.659Z,38.70
2017-09-16T10:01:54.508Z,34.30
2017-09-16T10:04:22.599Z,34.30
2017-09-16T10:06:50.771Z,33.70
2017-09-16T10:09:18.865Z,31.80
2017-09-16T10:11:47.704Z,34.50
2017-09-16T10:14:15.790Z,35.20
2017-09-16T10:16:43.875Z,33.60
2017-09-16T10:19:11.955Z,34.60
2017-09-16T10:21:40.040Z,35.20
2017-09-16T10:24:08.146Z,35.20
2017-09-16T10:26:36.992Z,33.20
2017-09-16T10:29:05.069Z,33.30
2017-09-16T10:31:33.151Z,32.80
2017-09-16T10:34:01.220Z,30.20
2017-09-16T10:36:29.294Z,29.10
2017-09-16T10:38:57.365Z,29.20
2017-09-16T10:41:25.444Z,27.50
2017-09-16T10:43:53.521Z,27.00
2017-09-16T10:46:21.604Z,27.80
2017-09-16T10:48:50.446Z,27.00
2017-09-16T10:51:18.507Z,27.00
2017-09-16T10:53:46.592Z,27.00
2017-09-16T10:56:14.659Z,27.50
2017-09-16T10:58:43.499Z,26.10
2017-09-16T11:01:12.323Z,27.10
2017-09-16T11:03:41.173Z,27.00
2017-09-16T11:06:09.251Z,27.00
2017-09-16T11:08:38.087Z,28.30
2017-09-16T11:11:06.933Z,31.00
2017-09-16T11:13:35.775Z,28.70
2017-09-16T11:16:03.847Z,28.50
2017-09-16T11:18:31.919Z,29.40
2017-09-16T11:21:00.003Z,28.30
2017-09-16T11:23:28.068Z,29.20
2017-09-16T11:25:56.140Z,28.20
2017-09-16T11:28:24.211Z,28.00
2017-09-16T11:30:52.298Z,30.20
2017-09-16T11:33:20.359Z,28.80
2017-09-16T11:35:48.456Z,30.00
2017-09-16T11:38:16.519Z,29.40
2017-09-16T11:40:44.599Z,27.90
2017-09-16T11:43:12.747Z,27.70
2017-09-16T11:45:40.828Z,27.60
2017-09-16T11:48:08.895Z,28.40
2017-09-16T11:50:36.972Z,27.20
2017-09-16T11:53:05.044Z,28.00
2017-09-16T11:55:33.112Z,27.60
2017-09-16T11:58:01.185Z,27.60
2017-09-16T12:00:29.290Z,26.80
2017-09-16T12:02:57.359Z,26.30
2017-09-16T12:05:25.419Z,25.90
2017-09-16T12:07:53.495Z,26.20
2017-09-16T12:10:21.561Z,24.60
2017-09-16T12:12:49.646Z,25.10
2017-09-16T12:15:17.707Z,26.90
2017-09-16T12:17:45.792Z,25.80
2017-09-16T12:20:14.652Z,25.20
2017-09-16T12:22:42.726Z,25.10
2017-09-16T12:25:10.796Z,24.70
2017-09-16T12:27:38.868Z,24.70
2017-09-16T12:30:06.959Z,24.10
2017-09-16T12:32:35.024Z,23.60
2017-09-16T12:35:03.107Z,23.30
2017-09-16T12:37:31.171Z,24.40
2017-09-16T12:39:59.248Z,25.30
2017-09-16T12:42:27.319Z,26.20
2017-09-16T12:44:55.407Z,27.80
2017-09-16T12:47:23.476Z,29.50
2017-09-16T12:49:51.540Z,28.50
2017-09-16T12:52:19.607Z,26.00
2017-09-16T12:54:47.679Z,25.90
2017-09-16T12:57:15.756Z,26.80
2017-09-16T12:59:43.828Z,26.60
2017-09-16T13:02:11.903Z,26.20
2017-09-16T13:04:39.977Z,26.10
2017-09-16T13:07:08.048Z,25.10
2017-09-16T13:09:36.119Z,26.40
2017-09-16T13:12:04.200Z,25.30
2017-09-16T13:14:32.260Z,26.60
2017-09-16T13:17:00.331Z,26.40
2017-09-16T13:19:28.409Z,25.00
2017-09-16T13:21:56.488Z,26.20
2017-09-16T13:24:24.564Z,26.80
2017-09-16T13:26:52.636Z,27.40
2017-09-16T13:29:20.706Z,27.20
2017-09-16T13:31:48.767Z,27.40
2017-09-16T13:34:16.834Z,27.80
2017-09-16T13:36:44.916Z,28.50
2017-09-16T13:39:12.987Z,28.30
2017-09-16T13:41:41.060Z,28.80
2017-09-16T13:44:09.132Z,28.70
2017-09-16T13:46:37.199Z,28.10
2017-09-16T13:49:05.287Z,30.10
2017-09-16T13:51:33.346Z,28.70
2017-09-16T13:54:01.419Z,28.80
2017-09-16T13:56:29.496Z,28.90
2017-09-16T13:58:57.567Z,30.00
2017-09-16T14:01:25.640Z,32.30
2017-09-16T14:03:53.711Z,31.00
2017-09-16T14:06:21.797Z,31.10
2017-09-16T14:08:49.858Z,31.40
2017-09-16T14:11:17.947Z,31.40
2017-09-16T14:13:46.016Z,31.40
2017-09-16T14:16:14.092Z,31.60
2017-09-16T14:18:42.163Z,30.60
2017-09-16T14:21:10.232Z,31.60
2017-09-16T14:23:38.299Z,28.80
2017-09-16T14:26:06.359Z,29.40
2017-09-16T14:28:34.434Z,30.70
2017-09-16T14:31:02.503Z,29.90
2017-09-16T14:33:30.582Z,29.70
2017-09-16T14:35:58.651Z,26.90
2017-09-16T14:38:26.735Z,27.40
2017-09-16T14:40:54.808Z,27.20
2017-09-16T14:43:22.872Z,27.30
2017-09-16T14:45:50.956Z,25.70
2017-09-16T14:48:19.020Z,25.50
2017-09-16T14:50:47.095Z,25.70
2017-09-16T14:53:15.155Z,26.80
2017-09-16T14:55:43.248Z,26.30
2017-09-16T14:58:11.318Z,26.50
2017-09-16T15:00:39.408Z,25.60
2017-09-16T15:03:08.239Z,26.30
2017-09-16T15:05:36.307Z,26.20
2017-09-16T15:08:04.398Z,25.80
2017-09-16T15:10:32.454Z,25.70
2017-09-16T15:13:00.547Z,25.80
2017-09-16T15:15:28.610Z,25.20
2017-09-16T15:17:56.692Z,25.90
2017-09-16T15:20:24.765Z,24.50
2017-09-16T15:22:52.847Z,24.70
2017-09-16T15:25:20.924Z,24.50
2017-09-16T15:27:48.991Z,23.90
2017-09-16T15:30:17.066Z,24.50
2017-09-16T15:32:45.137Z,23.80
2017-09-16T15:35:13.235Z,24.30
2017-09-16T15:37:41.276Z,28.00
2017-09-16T15:40:09.351Z,23.50
2017-09-16T15:42:37.416Z,24.80
2017-09-16T15:45:05.495Z,25.10
2017-09-16T15:47:33.597Z,25.30
2017-09-16T15:50:02.424Z,26.10
2017-09-16T15:52:31.336Z,26.10
2017-09-16T15:54:59.409Z,26.50
2017-09-16T15:57:27.524Z,26.50
2017-09-16T15:59:55.552Z,26.80
2017-09-16T16:02:23.624Z,26.20
2017-09-16T16:04:51.695Z,25.90
2017-09-16T16:07:19.790Z,25.90
2017-09-16T16:09:47.860Z,26.40
2017-09-16T16:12:15.930Z,26.20
2017-09-16T16:14:43.998Z,26.60
2017-09-16T16:17:12.064Z,26.90
2017-09-16T16:19:40.136Z,27.10
2017-09-16T16:22:08.204Z,27.10
2017-09-16T16:24:36.281Z,28.20
2017-09-16T16:27:04.352Z,26.50
2017-09-16T16:29:32.443Z,28.00
2017-09-16T16:32:00.512Z,27.70
2017-09-16T16:34:28.580Z,27.40
2017-09-16T16:36:56.656Z,27.70
2017-09-16T16:39:24.778Z,27.80
2017-09-16T16:41:52.852Z,27.70
2017-09-16T16:44:20.922Z,28.20
2017-09-16T16:46:49.757Z,29.50
2017-09-16T16:49:17.849Z,29.40
2017-09-16T16:51:45.922Z,30.00
2017-09-16T16:54:13.983Z,31.10
2017-09-16T16:56:42.076Z,30.90
2017-09-16T16:59:10.926Z,31.60
2017-09-16T17:01:39.004Z,31.50
2017-09-16T17:04:07.083Z,39.70
2017-09-16T17:06:35.148Z,48.50
2017-09-16T17:09:03.222Z,32.70
2017-09-16T17:11:31.291Z,32.30
2017-09-16T17:13:59.367Z,33.00
2017-09-16T17:16:27.435Z,33.10
2017-09-16T17:18:55.531Z,33.00
2017-09-16T17:21:23.608Z,32.40
2017-09-16T17:23:51.671Z,33.20
2017-09-16T17:26:19.756Z,33.70
2017-09-16T17:28:47.827Z,34.90
2017-09-16T17:31:15.900Z,34.30
2017-09-16T17:33:43.964Z,35.20
2017-09-16T17:36:12.040Z,35.20
2017-09-16T17:38:40.115Z,35.20
2017-09-16T17:41:08.208Z,35.20
2017-09-16T17:43:37.050Z,36.60
2017-09-16T17:46:05.132Z,36.60
2017-09-16T17:48:33.228Z,37.10
2017-09-16T17:51:01.296Z,38.40
2017-09-16T17:53:29.377Z,39.30
2017-09-16T17:55:58.214Z,40.60
2017-09-16T17:58:27.099Z,40.60
2017-09-16T18:00:55.179Z,40.60
2017-09-16T18:03:24.047Z,40.60
2017-09-16T18:05:52.138Z,40.60
2017-09-16T18:08:20.236Z,40.90
2017-09-16T18:10:48.323Z,41.30
2017-09-16T18:13:16.424Z,41.80
2017-09-16T18:15:45.274Z,42.60
2017-09-16T18:18:13.359Z,42.60
2017-09-16T18:20:41.448Z,43.50
2017-09-16T18:23:09.524Z,43.40
2017-09-16T18:25:38.375Z,42.70
2017-09-16T18:28:06.451Z,42.70
2017-09-16T18:30:34.539Z,42.60
2017-09-16T18:33:02.620Z,42.70
2017-09-16T18:35:30.699Z,43.20
2017-09-16T18:37:58.771Z,43.30
2017-09-16T18:40:26.857Z,43.10
2017-09-16T18:42:55.692Z,44.10
2017-09-16T18:45:23.775Z,44.10
2017-09-16T18:47:51.856Z,44.70
2017-09-16T18:50:19.939Z,44.70
2017-09-16T18:52:48.036Z,44.90
2017-09-16T18:55:16.154Z,44.10
2017-09-16T18:57:44.992Z,45.20
2017-09-16T19:00:13.071Z,45.20
2017-09-16T19:02:41.912Z,44.70
2017-09-16T19:05:10.014Z,44.70
2017-09-16T19:07:38.100Z,45.50
2017-09-16T19:10:06.169Z,47.10
2017-09-16T19:12:34.252Z,48.20
2017-09-16T19:15:03.092Z,48.50
2017-09-16T19:17:31.181Z,48.50
2017-09-16T19:19:59.252Z,49.10
2017-09-16T19:22:27.334Z,49.90
2017-09-16T19:24:55.419Z,51.10
2017-09-16T19:27:23.520Z,51.10
2017-09-16T19:29:51.599Z,51.10
2017-09-16T19:32:19.692Z,51.00
2017-09-16T19:34:48.531Z,50.90
2017-09-16T19:37:16.620Z,51.00
2017-09-16T19:39:45.465Z,50.40
2017-09-16T19:42:13.556Z,50.40
2017-09-16T19:44:41.687Z,50.00
2017-09-16T19:47:09.788Z,49.80
2017-09-16T19:49:37.868Z,49.70
2017-09-16T19:52:06.729Z,49.20
2017-09-16T19:54:34.804Z,49.00
2017-09-16T19:57:02.895Z,49.10
2017-09-16T19:59:30.967Z,49.40
2017-09-16T20:01:59.055Z,49.30
2017-09-16T20:04:27.140Z,48.90
2017-09-16T20:06:55.223Z,48.50
2017-09-16T20:09:24.067Z,47.60
2017-09-16T20:11:52.156Z,47.60
2017-09-16T20:14:20.247Z,47.70
2017-09-16T20:16:48.329Z,47.50
2017-09-16T20:19:17.167Z,47.00
2017-09-16T20:21:46.016Z,47.30
2017-09-16T20:24:14.857Z,46.30
2017-09-16T20:26:42.941Z,46.30
2017-09-16T20:29:11.017Z,46.60
2017-09-16T20:31:39.105Z,46.50
2017-09-16T20:34:07.198Z,46.60
2017-09-16T20:36:36.053Z,46.80
2017-09-16T20:39:04.124Z,46.80
2017-09-16T20:41:32.207Z,46.80
2017-09-16T20:44:00.379Z,47.70
2017-09-16T20:46:28.467Z,48.40
2017-09-16T20:48:56.539Z,47.80
2017-09-16T20:51:24.628Z,47.90
2017-09-16T20:53:53.476Z,48.80
2017-09-16T20:56:21.593Z,48.80
2017-09-16T20:58:50.564Z,49.80
2017-09-16T21:01:18.645Z,49.70
2017-09-16T21:03:46.716Z,50.60
2017-09-16T21:06:15.040Z,50.70
2017-09-16T21:08:43.335Z,50.70
2017-09-16T21:11:11.417Z,50.10
2017-09-16T21:13:39.496Z,50.50
2017-09-16T21:16:07.575Z,49.40
2017-09-16T21:18:35.652Z,49.30
2017-09-16T21:21:03.735Z,49.10
2017-09-16T21:23:31.814Z,48.80
2017-09-16T21:26:00.667Z,48.80
2017-09-16T21:28:28.744Z,48.80
2017-09-16T21:30:56.831Z,48.50
2017-09-16T21:33:24.930Z,48.00
2017-09-16T21:35:52.995Z,48.40
2017-09-16T21:38:21.844Z,47.80
2017-09-16T21:40:49.944Z,47.70
2017-09-16T21:43:18.031Z,47.60
2017-09-16T21:45:46.138Z,48.30
2017-09-16T21:48:14.224Z,48.40
2017-09-16T21:50:42.309Z,48.90
2017-09-16T21:53:10.397Z,48.10
2017-09-16T21:55:38.481Z,48.70
2017-09-16T21:58:06.565Z,49.20
2017-09-16T22:00:34.635Z,48.10
2017-09-16T22:03:02.712Z,48.60
2017-09-16T22:05:31.560Z,49.90
2017-09-16T22:08:00.400Z,49.70
2017-09-16T22:10:29.248Z,49.80
2017-09-16T22:12:57.343Z,49.80
2017-09-16T22:15:25.419Z,49.90
2017-09-16T22:17:53.508Z,49.40
2017-09-16T22:20:22.348Z,49.80
2017-09-16T22:22:50.436Z,49.80
2017-09-16T22:25:18.521Z,49.90
2017-09-16T22:27:46.637Z,49.70
2017-09-16T22:30:14.708Z,48.90
2017-09-16T22:32:42.791Z,48.90
2017-09-16T22:35:10.869Z,48.50
2017-09-16T22:37:39.715Z,50.00
2017-09-16T22:40:07.788Z,49.20
2017-09-16T22:42:35.879Z,49.20
2017-09-16T22:45:04.720Z,49.70
2017-09-16T22:47:32.795Z,49.70
2017-09-16T22:50:00.863Z,49.80
2017-09-16T22:52:28.944Z,48.60
2017-09-16T22:54:57.017Z,48.70
2017-09-16T22:57:25.107Z,48.20
2017-09-16T22:59:53.189Z,48.10
2017-09-16T23:02:21.278Z,49.20
2017-09-16T23:04:50.120Z,49.50
2017-09-16T23:07:18.209Z,49.50
2017-09-16T23:09:46.339Z,48.90
2017-09-16T23:12:14.436Z,48.80
2017-09-16T23:14:42.510Z,50.20
2017-09-16T23:17:10.604Z,50.20
2017-09-16T23:19:38.673Z,50.20
2017-09-16T23:22:06.756Z,51.20
2017-09-16T23:24:35.455Z,51.40
2017-09-16T23:27:03.540Z,50.90
2017-09-16T23:29:31.608Z,50.20
2017-09-16T23:32:00.448Z,50.20
2017-09-16T23:34:28.605Z,50.20
2017-09-16T23:36:56.707Z,50.20
2017-09-16T23:39:24.780Z,50.20
2017-09-16T23:41:52.855Z,50.20
2017-09-16T23:44:20.936Z,49.30
2017-09-16T23:46:49.019Z,51.10
2017-09-16T23:49:17.092Z,50.70
2017-09-16T23:51:45.163Z,51.70
2017-09-16T23:54:13.237Z,51.20
2017-09-16T23:56:41.313Z,51.60
2017-09-16T23:59:10.149Z,52.00
